Forside
METAR-TAF:

METAR-TAF

Lufthavne :

Midtjyllands Lufthavn

Karup, Danmark

Breddekreds: 56-18N, længdekreds: 009-07E, højde: 52 m

Aktuelle vejr

Denne rapport blev lavet for 19 minutter siden, kl. 19:20 UTC
Vind 10 kt fra nordnordøst
Temperatur 14°C
Fugtighed 94%
Tryk 1009 hPa
Sigt 10 km eller mere

METAR: EKKA 271920Z AUTO 03010KT 9999 SCT070/// BKN086/// 14/13 Q1009

Tid: 21:39 (19:39 UTC)

Vejrudsigter

Denne rapport blev lavet for 2 timer og 23 minutter siden, kl. 17:16 UTC
Foreløbig gælder fra 27 på 18 UTC til 28 på 18 UTC
Vind 8 kt fra nordøst
Sigt 10 km eller mere
Brudte skyer i en højde af 1500 ft
Midlertidig
fra 27 på 18 UTC til 28 på 09 UTC
Brudte skyer i en højde af 800 ft
Midlertidig
fra 28 på 09 UTC til 28 på 18 UTC
Brudte skyer i en højde af 1200 ft
ændring
fra 28 på 10 UTC til 28 på 13 UTC
Vind 8 kt fra øst

TAF: EKKA 271716Z 2718/2818 05008KT 9999 BKN015 TEMPO 2718/2809 BKN008 TEMPO 2809/2818 BKN012 BECMG 2810/2813 10008KT

Vejrobservationer og prognoser fra mere end 4000 lufthavne (METAR og TAF).

De gule og røde prikker repræsenterer de meteorologiske stationer.

Flyt musen over at se navnet på stationen.

Så klik over at se vejr observationer og prognoser.

At skifte det kort: Klik på de grønne knapper med et sort kors for at zoome ind; på den grønne knap med en bindestreg for at zoome ud; eller på de grønne pile for tilstødende kort.


METAR-TAF: